sensor_id;sensor_type;location;lat;lon;timestamp;P1;durP1;ratioP1;P2;durP2;ratioP2
1416;SDS011;703;51.162;13.574;2024-03-23T00:53:33;11.33;;;10.23;;
1416;SDS011;703;51.162;13.574;2024-03-23T00:55:59;12.20;;;10.97;;
1416;SDS011;703;51.162;13.574;2024-03-23T00:58:25;19.40;;;15.17;;
1416;SDS011;703;51.162;13.574;2024-03-23T01:00:51;12.30;;;11.20;;
1416;SDS011;703;51.162;13.574;2024-03-23T01:03:17;12.37;;;10.30;;
1416;SDS011;703;51.162;13.574;2024-03-23T01:05:42;12.37;;;11.07;;
1416;SDS011;703;51.162;13.574;2024-03-23T01:08:08;14.13;;;12.27;;
1416;SDS011;703;51.162;13.574;2024-03-23T01:10:34;12.63;;;11.50;;
1416;SDS011;703;51.162;13.574;2024-03-23T01:13:00;16.90;;;12.00;;
1416;SDS011;703;51.162;13.574;2024-03-23T01:15:26;17.23;;;12.70;;
1416;SDS011;703;51.162;13.574;2024-03-23T01:17:52;12.17;;;11.00;;
1416;SDS011;703;51.162;13.574;2024-03-23T01:20:18;13.63;;;12.23;;
1416;SDS011;703;51.162;13.574;2024-03-23T01:22:44;13.67;;;12.47;;
1416;SDS011;703;51.162;13.574;2024-03-23T01:25:10;11.90;;;10.90;;
1416;SDS011;703;51.162;13.574;2024-03-23T01:27:36;15.53;;;14.10;;
1416;SDS011;703;51.162;13.574;2024-03-23T01:30:02;15.67;;;13.53;;
1416;SDS011;703;51.162;13.574;2024-03-23T01:32:28;16.03;;;14.27;;
1416;SDS011;703;51.162;13.574;2024-03-23T01:34:54;16.90;;;13.60;;
1416;SDS011;703;51.162;13.574;2024-03-23T01:37:20;13.77;;;12.10;;
1416;SDS011;703;51.162;13.574;2024-03-23T01:39:46;18.37;;;15.53;;
1416;SDS011;703;51.162;13.574;2024-03-23T01:42:12;14.87;;;12.40;;
1416;SDS011;703;51.162;13.574;2024-03-23T01:44:38;22.97;;;17.33;;
1416;SDS011;703;51.162;13.574;2024-03-23T01:47:04;15.47;;;13.97;;
1416;SDS011;703;51.162;13.574;2024-03-23T01:49:30;17.13;;;14.80;;
1416;SDS011;703;51.162;13.574;2024-03-23T01:51:56;19.17;;;14.73;;
1416;SDS011;703;51.162;13.574;2024-03-23T01:54:22;24.77;;;16.60;;
1416;SDS011;703;51.162;13.574;2024-03-23T01:56:48;21.03;;;14.93;;
1416;SDS011;703;51.162;13.574;2024-03-23T01:59:14;19.03;;;15.80;;
1416;SDS011;703;51.162;13.574;2024-03-23T02:01:40;19.50;;;14.40;;
1416;SDS011;703;51.162;13.574;2024-03-23T02:04:06;17.67;;;15.63;;
1416;SDS011;703;51.162;13.574;2024-03-23T02:06:34;18.47;;;16.63;;
1416;SDS011;703;51.162;13.574;2024-03-23T02:08:59;24.13;;;16.70;;
1416;SDS011;703;51.162;13.574;2024-03-23T02:11:26;31.93;;;20.17;;
1416;SDS011;703;51.162;13.574;2024-03-23T02:13:52;27.10;;;21.77;;
1416;SDS011;703;51.162;13.574;2024-03-23T02:16:18;27.83;;;18.50;;
1416;SDS011;703;51.162;13.574;2024-03-23T02:18:44;21.63;;;19.33;;
1416;SDS011;703;51.162;13.574;2024-03-23T02:21:10;34.23;;;18.93;;
1416;SDS011;703;51.162;13.574;2024-03-23T02:23:35;24.03;;;21.37;;
1416;SDS011;703;51.162;13.574;2024-03-23T02:26:02;19.83;;;17.80;;
1416;SDS011;703;51.162;13.574;2024-03-23T02:28:27;24.07;;;20.37;;
1416;SDS011;703;51.162;13.574;2024-03-23T02:30:53;23.30;;;21.00;;
1416;SDS011;703;51.162;13.574;2024-03-23T02:33:19;33.27;;;20.73;;
1416;SDS011;703;51.162;13.574;2024-03-23T02:35:46;24.80;;;18.83;;
1416;SDS011;703;51.162;13.574;2024-03-23T02:38:12;33.03;;;21.77;;
1416;SDS011;703;51.162;13.574;2024-03-23T02:40:38;27.80;;;22.37;;
1416;SDS011;703;51.162;13.574;2024-03-23T02:43:04;32.23;;;21.67;;
1416;SDS011;703;51.162;13.574;2024-03-23T02:45:30;23.03;;;17.87;;
1416;SDS011;703;51.162;13.574;2024-03-23T02:47:56;28.93;;;20.07;;
1416;SDS011;703;51.162;13.574;2024-03-23T02:50:22;23.10;;;20.80;;
1416;SDS011;703;51.162;13.574;2024-03-23T02:52:48;28.83;;;20.77;;
1416;SDS011;703;51.162;13.574;2024-03-23T02:55:14;25.03;;;19.83;;
1416;SDS011;703;51.162;13.574;2024-03-23T02:57:41;28.73;;;22.07;;
1416;SDS011;703;51.162;13.574;2024-03-23T03:00:07;24.07;;;21.17;;
1416;SDS011;703;51.162;13.574;2024-03-23T03:02:34;24.97;;;22.20;;
1416;SDS011;703;51.162;13.574;2024-03-23T03:05:00;23.77;;;21.13;;
1416;SDS011;703;51.162;13.574;2024-03-23T03:07:25;30.80;;;24.20;;
1416;SDS011;703;51.162;13.574;2024-03-23T03:09:51;30.00;;;22.30;;
1416;SDS011;703;51.162;13.574;2024-03-23T03:12:17;32.03;;;21.00;;
1416;SDS011;703;51.162;13.574;2024-03-23T03:14:43;31.50;;;24.50;;
1416;SDS011;703;51.162;13.574;2024-03-23T03:17:09;41.03;;;25.60;;
1416;SDS011;703;51.162;13.574;2024-03-23T03:19:35;24.87;;;21.30;;
1416;SDS011;703;51.162;13.574;2024-03-23T03:22:01;24.20;;;21.47;;
1416;SDS011;703;51.162;13.574;2024-03-23T03:24:28;27.90;;;20.63;;
1416;SDS011;703;51.162;13.574;2024-03-23T03:26:54;27.20;;;23.83;;
1416;SDS011;703;51.162;13.574;2024-03-23T03:29:20;34.70;;;24.43;;
1416;SDS011;703;51.162;13.574;2024-03-23T03:31:45;38.10;;;26.30;;
1416;SDS011;703;51.162;13.574;2024-03-23T03:34:11;30.67;;;24.37;;
1416;SDS011;703;51.162;13.574;2024-03-23T03:36:37;27.17;;;23.60;;
1416;SDS011;703;51.162;13.574;2024-03-23T03:39:03;29.77;;;25.83;;
1416;SDS011;703;51.162;13.574;2024-03-23T03:41:31;38.13;;;28.30;;
1416;SDS011;703;51.162;13.574;2024-03-23T03:43:57;32.23;;;22.47;;
1416;SDS011;703;51.162;13.574;2024-03-23T03:46:26;30.80;;;24.20;;
1416;SDS011;703;51.162;13.574;2024-03-23T03:48:53;45.27;;;24.43;;
1416;SDS011;703;51.162;13.574;2024-03-23T03:51:19;37.17;;;27.27;;
1416;SDS011;703;51.162;13.574;2024-03-23T03:53:46;38.07;;;27.17;;
1416;SDS011;703;51.162;13.574;2024-03-23T03:56:11;30.57;;;25.80;;
1416;SDS011;703;51.162;13.574;2024-03-23T03:58:37;30.83;;;23.73;;
1416;SDS011;703;51.162;13.574;2024-03-23T04:01:04;28.33;;;24.23;;
1416;SDS011;703;51.162;13.574;2024-03-23T04:03:30;49.37;;;27.20;;
1416;SDS011;703;51.162;13.574;2024-03-23T04:05:56;32.00;;;23.00;;
1416;SDS011;703;51.162;13.574;2024-03-23T04:08:22;45.13;;;29.50;;
1416;SDS011;703;51.162;13.574;2024-03-23T04:10:48;38.43;;;28.23;;
1416;SDS011;703;51.162;13.574;2024-03-23T04:13:14;40.67;;;28.77;;
1416;SDS011;703;51.162;13.574;2024-03-23T04:15:40;36.30;;;24.83;;
1416;SDS011;703;51.162;13.574;2024-03-23T04:18:06;35.37;;;26.30;;
1416;SDS011;703;51.162;13.574;2024-03-23T04:20:32;35.97;;;26.67;;
1416;SDS011;703;51.162;13.574;2024-03-23T04:23:01;28.80;;;24.80;;
1416;SDS011;703;51.162;13.574;2024-03-23T04:25:27;32.63;;;25.60;;
1416;SDS011;703;51.162;13.574;2024-03-23T04:27:52;32.33;;;25.07;;
1416;SDS011;703;51.162;13.574;2024-03-23T04:30:18;38.13;;;26.73;;
1416;SDS011;703;51.162;13.574;2024-03-23T04:32:46;35.83;;;27.40;;
1416;SDS011;703;51.162;13.574;2024-03-23T04:35:12;38.30;;;24.07;;
1416;SDS011;703;51.162;13.574;2024-03-23T04:37:38;28.23;;;22.90;;
1416;SDS011;703;51.162;13.574;2024-03-23T04:40:08;33.73;;;23.57;;
1416;SDS011;703;51.162;13.574;2024-03-23T04:42:34;65.63;;;29.50;;
1416;SDS011;703;51.162;13.574;2024-03-23T04:45:00;38.33;;;26.93;;
1416;SDS011;703;51.162;13.574;2024-03-23T04:47:26;43.13;;;25.30;;
1416;SDS011;703;51.162;13.574;2024-03-23T04:49:52;40.63;;;28.07;;
1416;SDS011;703;51.162;13.574;2024-03-23T04:52:18;25.73;;;23.10;;
1416;SDS011;703;51.162;13.574;2024-03-23T04:54:44;37.93;;;25.63;;
1416;SDS011;703;51.162;13.574;2024-03-23T04:57:11;31.80;;;22.90;;
1416;SDS011;703;51.162;13.574;2024-03-23T04:59:37;32.13;;;23.87;;
1416;SDS011;703;51.162;13.574;2024-03-23T05:02:03;33.60;;;25.10;;
1416;SDS011;703;51.162;13.574;2024-03-23T05:04:29;40.77;;;25.67;;
1416;SDS011;703;51.162;13.574;2024-03-23T05:06:54;32.93;;;20.57;;
1416;SDS011;703;51.162;13.574;2024-03-23T05:09:20;30.10;;;24.70;;
1416;SDS011;703;51.162;13.574;2024-03-23T05:11:46;33.33;;;25.73;;
1416;SDS011;703;51.162;13.574;2024-03-23T05:14:15;48.57;;;24.00;;
1416;SDS011;703;51.162;13.574;2024-03-23T05:16:41;28.27;;;22.37;;
1416;SDS011;703;51.162;13.574;2024-03-23T05:19:07;30.80;;;26.93;;
1416;SDS011;703;51.162;13.574;2024-03-23T05:21:33;33.57;;;22.13;;
1416;SDS011;703;51.162;13.574;2024-03-23T05:23:59;36.07;;;22.87;;
1416;SDS011;703;51.162;13.574;2024-03-23T05:26:25;29.57;;;22.60;;
1416;SDS011;703;51.162;13.574;2024-03-23T05:28:51;34.10;;;22.83;;
1416;SDS011;703;51.162;13.574;2024-03-23T05:31:24;30.97;;;24.40;;
1416;SDS011;703;51.162;13.574;2024-03-23T05:33:50;42.50;;;24.63;;
1416;SDS011;703;51.162;13.574;2024-03-23T05:36:16;36.20;;;25.27;;
1416;SDS011;703;51.162;13.574;2024-03-23T05:38:41;30.07;;;24.50;;
1416;SDS011;703;51.162;13.574;2024-03-23T05:41:07;35.67;;;22.53;;
1416;SDS011;703;51.162;13.574;2024-03-23T05:43:33;30.80;;;24.60;;
1416;SDS011;703;51.162;13.574;2024-03-23T05:45:59;33.73;;;21.07;;
1416;SDS011;703;51.162;13.574;2024-03-23T05:48:32;29.60;;;22.30;;
1416;SDS011;703;51.162;13.574;2024-03-23T05:50:58;32.93;;;22.80;;
1416;SDS011;703;51.162;13.574;2024-03-23T05:53:24;22.43;;;20.20;;
1416;SDS011;703;51.162;13.574;2024-03-23T05:55:50;36.30;;;29.00;;
1416;SDS011;703;51.162;13.574;2024-03-23T05:58:19;39.37;;;23.17;;
1416;SDS011;703;51.162;13.574;2024-03-23T06:00:47;28.33;;;21.67;;
1416;SDS011;703;51.162;13.574;2024-03-23T06:03:13;43.23;;;25.97;;
1416;SDS011;703;51.162;13.574;2024-03-23T06:05:39;39.57;;;25.43;;
1416;SDS011;703;51.162;13.574;2024-03-23T06:08:06;44.70;;;28.83;;
1416;SDS011;703;51.162;13.574;2024-03-23T06:10:34;26.60;;;20.27;;
1416;SDS011;703;51.162;13.574;2024-03-23T06:13:00;33.57;;;25.00;;
1416;SDS011;703;51.162;13.574;2024-03-23T06:15:26;33.47;;;27.23;;
1416;SDS011;703;51.162;13.574;2024-03-23T06:17:52;44.40;;;25.90;;
1416;SDS011;703;51.162;13.574;2024-03-23T06:20:18;32.90;;;27.17;;
1416;SDS011;703;51.162;13.574;2024-03-23T06:22:44;35.37;;;29.20;;
1416;SDS011;703;51.162;13.574;2024-03-23T06:25:10;38.63;;;28.23;;
1416;SDS011;703;51.162;13.574;2024-03-23T06:27:37;35.00;;;29.37;;
1416;SDS011;703;51.162;13.574;2024-03-23T06:30:04;44.07;;;30.23;;
1416;SDS011;703;51.162;13.574;2024-03-23T06:32:30;43.90;;;30.87;;
1416;SDS011;703;51.162;13.574;2024-03-23T06:34:56;37.60;;;29.63;;
1416;SDS011;703;51.162;13.574;2024-03-23T06:37:22;42.33;;;28.57;;
1416;SDS011;703;51.162;13.574;2024-03-23T06:39:47;42.97;;;29.60;;
1416;SDS011;703;51.162;13.574;2024-03-23T06:42:13;44.23;;;28.70;;
1416;SDS011;703;51.162;13.574;2024-03-23T06:44:39;33.03;;;25.07;;
1416;SDS011;703;51.162;13.574;2024-03-23T06:47:05;49.30;;;29.93;;
1416;SDS011;703;51.162;13.574;2024-03-23T06:49:31;46.53;;;32.07;;
1416;SDS011;703;51.162;13.574;2024-03-23T06:51:57;29.40;;;23.47;;
1416;SDS011;703;51.162;13.574;2024-03-23T06:54:24;42.33;;;24.30;;
1416;SDS011;703;51.162;13.574;2024-03-23T06:56:50;46.63;;;31.23;;
1416;SDS011;703;51.162;13.574;2024-03-23T06:59:16;37.10;;;26.77;;
1416;SDS011;703;51.162;13.574;2024-03-23T07:01:42;38.00;;;26.77;;
1416;SDS011;703;51.162;13.574;2024-03-23T07:04:08;33.93;;;27.20;;
1416;SDS011;703;51.162;13.574;2024-03-23T07:06:34;37.70;;;31.13;;
1416;SDS011;703;51.162;13.574;2024-03-23T07:09:00;35.57;;;27.90;;
1416;SDS011;703;51.162;13.574;2024-03-23T07:11:26;41.40;;;29.47;;
1416;SDS011;703;51.162;13.574;2024-03-23T07:13:52;42.43;;;28.13;;
1416;SDS011;703;51.162;13.574;2024-03-23T07:16:21;35.53;;;27.53;;
1416;SDS011;703;51.162;13.574;2024-03-23T07:18:49;37.13;;;26.90;;
1416;SDS011;703;51.162;13.574;2024-03-23T07:21:15;38.23;;;30.40;;
1416;SDS011;703;51.162;13.574;2024-03-23T07:23:44;40.47;;;30.43;;
1416;SDS011;703;51.162;13.574;2024-03-23T07:26:10;38.53;;;26.83;;
1416;SDS011;703;51.162;13.574;2024-03-23T07:28:36;41.33;;;32.30;;
1416;SDS011;703;51.162;13.574;2024-03-23T07:31:21;45.37;;;32.40;;
1416;SDS011;703;51.162;13.574;2024-03-23T07:33:48;38.87;;;29.83;;
1416;SDS011;703;51.162;13.574;2024-03-23T07:36:14;47.47;;;29.60;;
1416;SDS011;703;51.162;13.574;2024-03-23T07:38:40;44.27;;;34.90;;
1416;SDS011;703;51.162;13.574;2024-03-23T07:41:10;47.40;;;30.90;;
1416;SDS011;703;51.162;13.574;2024-03-23T07:43:37;39.47;;;32.57;;
1416;SDS011;703;51.162;13.574;2024-03-23T07:46:03;32.53;;;29.33;;
1416;SDS011;703;51.162;13.574;2024-03-23T07:48:29;39.93;;;33.57;;
1416;SDS011;703;51.162;13.574;2024-03-23T07:51:37;46.40;;;30.63;;
1416;SDS011;703;51.162;13.574;2024-03-23T07:53:44;52.90;;;33.30;;
1416;SDS011;703;51.162;13.574;2024-03-23T07:56:14;35.20;;;28.50;;
1416;SDS011;703;51.162;13.574;2024-03-23T07:58:40;36.60;;;31.40;;
1416;SDS011;703;51.162;13.574;2024-03-23T08:01:06;37.97;;;28.23;;
1416;SDS011;703;51.162;13.574;2024-03-23T08:03:33;33.67;;;26.80;;
1416;SDS011;703;51.162;13.574;2024-03-23T08:06:06;37.63;;;28.60;;
1416;SDS011;703;51.162;13.574;2024-03-23T08:08:32;33.10;;;29.00;;
1416;SDS011;703;51.162;13.574;2024-03-23T08:10:58;47.80;;;27.17;;
1416;SDS011;703;51.162;13.574;2024-03-23T08:13:24;39.50;;;31.03;;
1416;SDS011;703;51.162;13.574;2024-03-23T08:15:50;46.03;;;33.03;;
1416;SDS011;703;51.162;13.574;2024-03-23T08:18:15;36.83;;;27.23;;
1416;SDS011;703;51.162;13.574;2024-03-23T08:20:41;44.23;;;30.73;;
1416;SDS011;703;51.162;13.574;2024-03-23T08:23:07;30.50;;;26.57;;
1416;SDS011;703;51.162;13.574;2024-03-23T08:25:33;49.10;;;28.17;;
1416;SDS011;703;51.162;13.574;2024-03-23T08:27:59;34.73;;;24.80;;
1416;SDS011;703;51.162;13.574;2024-03-23T08:30:26;34.53;;;26.70;;
1416;SDS011;703;51.162;13.574;2024-03-23T08:32:51;37.77;;;25.70;;
1416;SDS011;703;51.162;13.574;2024-03-23T08:35:17;40.90;;;21.97;;
1416;SDS011;703;51.162;13.574;2024-03-23T08:37:43;34.97;;;25.73;;
1416;SDS011;703;51.162;13.574;2024-03-23T08:40:09;38.70;;;25.73;;
1416;SDS011;703;51.162;13.574;2024-03-23T08:42:35;30.10;;;24.43;;
1416;SDS011;703;51.162;13.574;2024-03-23T08:45:01;39.33;;;24.17;;
1416;SDS011;703;51.162;13.574;2024-03-23T08:47:27;47.33;;;27.77;;
1416;SDS011;703;51.162;13.574;2024-03-23T08:49:56;29.30;;;23.53;;
1416;SDS011;703;51.162;13.574;2024-03-23T08:52:25;32.30;;;21.10;;
1416;SDS011;703;51.162;13.574;2024-03-23T08:54:53;33.53;;;20.37;;
1416;SDS011;703;51.162;13.574;2024-03-23T08:57:20;31.07;;;20.30;;
1416;SDS011;703;51.162;13.574;2024-03-23T08:59:46;31.30;;;21.90;;
1416;SDS011;703;51.162;13.574;2024-03-23T09:02:12;26.20;;;21.80;;
1416;SDS011;703;51.162;13.574;2024-03-23T09:04:38;26.47;;;21.00;;
1416;SDS011;703;51.162;13.574;2024-03-23T09:07:05;25.30;;;19.47;;
1416;SDS011;703;51.162;13.574;2024-03-23T09:09:31;24.43;;;19.50;;
1416;SDS011;703;51.162;13.574;2024-03-23T09:11:57;29.80;;;20.07;;
1416;SDS011;703;51.162;13.574;2024-03-23T09:14:23;21.20;;;16.37;;
1416;SDS011;703;51.162;13.574;2024-03-23T09:16:52;27.33;;;18.57;;
1416;SDS011;703;51.162;13.574;2024-03-23T09:22:24;23.80;;;16.53;;
1416;SDS011;703;51.162;13.574;2024-03-23T09:24:50;21.53;;;15.83;;
1416;SDS011;703;51.162;13.574;2024-03-23T09:27:22;15.13;;;13.60;;
1416;SDS011;703;51.162;13.574;2024-03-23T09:29:57;14.13;;;12.63;;
1416;SDS011;703;51.162;13.574;2024-03-23T09:32:24;17.57;;;13.23;;
1416;SDS011;703;51.162;13.574;2024-03-23T09:34:50;11.73;;;9.17;;
1416;SDS011;703;51.162;13.574;2024-03-23T09:37:16;9.57;;;8.50;;
1416;SDS011;703;51.162;13.574;2024-03-23T09:39:41;4.80;;;4.50;;
1416;SDS011;703;51.162;13.574;2024-03-23T09:42:07;8.73;;;6.20;;
1416;SDS011;703;51.162;13.574;2024-03-23T09:44:35;6.60;;;5.77;;
1416;SDS011;703;51.162;13.574;2024-03-23T09:47:01;5.77;;;4.87;;
1416;SDS011;703;51.162;13.574;2024-03-23T09:49:28;6.93;;;6.30;;
1416;SDS011;703;51.162;13.574;2024-03-23T09:51:53;6.30;;;5.27;;
1416;SDS011;703;51.162;13.574;2024-03-23T09:54:20;8.83;;;4.67;;
1416;SDS011;703;51.162;13.574;2024-03-23T09:56:46;4.33;;;3.97;;
1416;SDS011;703;51.162;13.574;2024-03-23T09:59:13;3.33;;;3.13;;
1416;SDS011;703;51.162;13.574;2024-03-23T10:01:38;3.80;;;3.70;;
1416;SDS011;703;51.162;13.574;2024-03-23T10:04:07;3.90;;;3.60;;
1416;SDS011;703;51.162;13.574;2024-03-23T10:06:37;3.60;;;3.40;;
1416;SDS011;703;51.162;13.574;2024-03-23T10:09:03;3.40;;;3.30;;
1416;SDS011;703;51.162;13.574;2024-03-23T10:11:43;3.90;;;3.80;;
1416;SDS011;703;51.162;13.574;2024-03-23T10:14:15;4.03;;;3.83;;
1416;SDS011;703;51.162;13.574;2024-03-23T10:16:54;3.70;;;3.50;;
1416;SDS011;703;51.162;13.574;2024-03-23T10:19:31;3.50;;;3.37;;
1416;SDS011;703;51.162;13.574;2024-03-23T10:21:57;4.60;;;4.30;;
1416;SDS011;703;51.162;13.574;2024-03-23T10:24:23;3.70;;;3.50;;
1416;SDS011;703;51.162;13.574;2024-03-23T10:26:55;3.60;;;3.50;;
1416;SDS011;703;51.162;13.574;2024-03-23T10:29:21;4.40;;;4.20;;
1416;SDS011;703;51.162;13.574;2024-03-23T10:31:51;4.10;;;4.00;;
1416;SDS011;703;51.162;13.574;2024-03-23T10:34:17;4.33;;;4.13;;
1416;SDS011;703;51.162;13.574;2024-03-23T10:36:50;3.90;;;3.70;;
1416;SDS011;703;51.162;13.574;2024-03-23T10:39:17;3.80;;;3.60;;
1416;SDS011;703;51.162;13.574;2024-03-23T10:41:44;5.47;;;5.17;;
1416;SDS011;703;51.162;13.574;2024-03-23T10:44:11;5.23;;;4.83;;
1416;SDS011;703;51.162;13.574;2024-03-23T10:46:37;4.47;;;4.27;;
1416;SDS011;703;51.162;13.574;2024-03-23T10:49:03;3.90;;;3.70;;
1416;SDS011;703;51.162;13.574;2024-03-23T10:51:29;4.00;;;3.80;;
1416;SDS011;703;51.162;13.574;2024-03-23T10:53:55;4.20;;;4.00;;
1416;SDS011;703;51.162;13.574;2024-03-23T10:56:23;4.00;;;3.80;;
1416;SDS011;703;51.162;13.574;2024-03-23T10:58:49;3.57;;;3.40;;
1416;SDS011;703;51.162;13.574;2024-03-23T11:01:15;3.90;;;3.80;;
1416;SDS011;703;51.162;13.574;2024-03-23T11:03:46;4.13;;;3.93;;
1416;SDS011;703;51.162;13.574;2024-03-23T11:06:33;3.07;;;2.97;;
1416;SDS011;703;51.162;13.574;2024-03-23T11:08:58;5.40;;;5.10;;
1416;SDS011;703;51.162;13.574;2024-03-23T11:11:24;3.20;;;3.10;;
1416;SDS011;703;51.162;13.574;2024-03-23T11:13:51;3.80;;;3.70;;
1416;SDS011;703;51.162;13.574;2024-03-23T11:16:24;3.70;;;3.60;;
1416;SDS011;703;51.162;13.574;2024-03-23T11:18:52;3.93;;;3.80;;
1416;SDS011;703;51.162;13.574;2024-03-23T11:24:12;3.83;;;3.73;;
1416;SDS011;703;51.162;13.574;2024-03-23T11:26:38;3.87;;;3.67;;
1416;SDS011;703;51.162;13.574;2024-03-23T11:29:11;4.40;;;4.20;;
1416;SDS011;703;51.162;13.574;2024-03-23T11:31:37;4.13;;;4.03;;
1416;SDS011;703;51.162;13.574;2024-03-23T11:34:04;3.90;;;3.70;;
1416;SDS011;703;51.162;13.574;2024-03-23T11:36:31;4.03;;;3.83;;
1416;SDS011;703;51.162;13.574;2024-03-23T11:38:56;4.20;;;4.00;;
1416;SDS011;703;51.162;13.574;2024-03-23T11:41:22;4.50;;;4.07;;
1416;SDS011;703;51.162;13.574;2024-03-23T11:43:48;3.60;;;3.40;;
1416;SDS011;703;51.162;13.574;2024-03-23T11:46:23;4.00;;;3.90;;
1416;SDS011;703;51.162;13.574;2024-03-23T11:48:50;4.87;;;4.67;;
1416;SDS011;703;51.162;13.574;2024-03-23T11:51:19;3.80;;;3.70;;
1416;SDS011;703;51.162;13.574;2024-03-23T11:53:45;4.27;;;4.07;;
1416;SDS011;703;51.162;13.574;2024-03-23T11:56:11;4.60;;;4.40;;
1416;SDS011;703;51.162;13.574;2024-03-23T11:58:37;4.40;;;4.20;;
1416;SDS011;703;51.162;13.574;2024-03-23T12:01:03;4.47;;;4.17;;
1416;SDS011;703;51.162;13.574;2024-03-23T12:03:30;7.00;;;4.17;;
1416;SDS011;703;51.162;13.574;2024-03-23T12:06:01;3.60;;;3.40;;
1416;SDS011;703;51.162;13.574;2024-03-23T12:08:30;4.00;;;3.80;;
1416;SDS011;703;51.162;13.574;2024-03-23T12:11:10;3.80;;;3.60;;
1416;SDS011;703;51.162;13.574;2024-03-23T12:13:36;3.53;;;3.43;;
1416;SDS011;703;51.162;13.574;2024-03-23T12:16:18;4.40;;;4.20;;
1416;SDS011;703;51.162;13.574;2024-03-23T12:18:48;3.70;;;3.50;;
1416;SDS011;703;51.162;13.574;2024-03-23T12:21:15;4.47;;;4.27;;
1416;SDS011;703;51.162;13.574;2024-03-23T12:23:42;5.40;;;5.10;;
1416;SDS011;703;51.162;13.574;2024-03-23T12:26:13;4.27;;;4.07;;
1416;SDS011;703;51.162;13.574;2024-03-23T12:28:40;3.70;;;3.50;;
1416;SDS011;703;51.162;13.574;2024-03-23T12:31:06;4.70;;;4.40;;
1416;SDS011;703;51.162;13.574;2024-03-23T12:33:32;4.03;;;3.83;;
1416;SDS011;703;51.162;13.574;2024-03-23T12:35:58;5.00;;;4.70;;
1416;SDS011;703;51.162;13.574;2024-03-23T12:38:24;4.40;;;4.20;;
1416;SDS011;703;51.162;13.574;2024-03-23T12:40:50;4.63;;;4.43;;
1416;SDS011;703;51.162;13.574;2024-03-23T12:43:16;5.10;;;4.90;;
1416;SDS011;703;51.162;13.574;2024-03-23T12:45:48;4.73;;;4.43;;
1416;SDS011;703;51.162;13.574;2024-03-23T12:48:14;5.03;;;4.70;;
1416;SDS011;703;51.162;13.574;2024-03-23T12:50:40;7.00;;;6.53;;
1416;SDS011;703;51.162;13.574;2024-03-23T12:53:06;11.20;;;6.40;;
1416;SDS011;703;51.162;13.574;2024-03-23T12:55:34;6.60;;;6.10;;
1416;SDS011;703;51.162;13.574;2024-03-23T12:58:00;5.27;;;4.73;;
1416;SDS011;703;51.162;13.574;2024-03-23T13:00:26;6.13;;;5.73;;
1416;SDS011;703;51.162;13.574;2024-03-23T13:02:52;4.77;;;4.40;;
1416;SDS011;703;51.162;13.574;2024-03-23T13:05:18;5.30;;;5.00;;
1416;SDS011;703;51.162;13.574;2024-03-23T13:07:44;5.83;;;5.53;;
1416;SDS011;703;51.162;13.574;2024-03-23T13:10:10;6.10;;;5.60;;
1416;SDS011;703;51.162;13.574;2024-03-23T13:12:36;6.20;;;5.60;;
1416;SDS011;703;51.162;13.574;2024-03-23T13:15:02;5.43;;;5.13;;
1416;SDS011;703;51.162;13.574;2024-03-23T13:17:28;6.70;;;6.40;;
1416;SDS011;703;51.162;13.574;2024-03-23T13:19:54;6.17;;;5.67;;
1416;SDS011;703;51.162;13.574;2024-03-23T13:22:21;6.70;;;6.20;;
1416;SDS011;703;51.162;13.574;2024-03-23T13:24:47;6.30;;;5.80;;
1416;SDS011;703;51.162;13.574;2024-03-23T13:27:13;6.57;;;6.17;;
1416;SDS011;703;51.162;13.574;2024-03-23T13:29:39;17.07;;;7.93;;
1416;SDS011;703;51.162;13.574;2024-03-23T13:32:05;6.13;;;5.73;;
1416;SDS011;703;51.162;13.574;2024-03-23T13:34:31;7.10;;;6.70;;
1416;SDS011;703;51.162;13.574;2024-03-23T13:36:58;6.77;;;6.33;;
1416;SDS011;703;51.162;13.574;2024-03-23T13:39:24;6.37;;;5.87;;
1416;SDS011;703;51.162;13.574;2024-03-23T13:41:52;7.57;;;6.87;;
1416;SDS011;703;51.162;13.574;2024-03-23T13:44:19;6.20;;;5.90;;
1416;SDS011;703;51.162;13.574;2024-03-23T13:46:45;5.90;;;5.60;;
1416;SDS011;703;51.162;13.574;2024-03-23T13:51:50;6.67;;;6.23;;
1416;SDS011;703;51.162;13.574;2024-03-23T13:54:16;7.20;;;6.10;;
1416;SDS011;703;51.162;13.574;2024-03-23T13:56:42;6.27;;;5.97;;
1416;SDS011;703;51.162;13.574;2024-03-23T13:59:09;7.20;;;6.60;;
1416;SDS011;703;51.162;13.574;2024-03-23T14:01:35;5.87;;;5.53;;
1416;SDS011;703;51.162;13.574;2024-03-23T14:04:01;6.43;;;5.97;;
1416;SDS011;703;51.162;13.574;2024-03-23T14:06:27;6.03;;;5.73;;
1416;SDS011;703;51.162;13.574;2024-03-23T14:08:53;5.93;;;5.63;;
1416;SDS011;703;51.162;13.574;2024-03-23T14:11:19;6.80;;;6.50;;
1416;SDS011;703;51.162;13.574;2024-03-23T14:13:44;5.90;;;5.50;;
1416;SDS011;703;51.162;13.574;2024-03-23T14:16:10;6.23;;;5.83;;
1416;SDS011;703;51.162;13.574;2024-03-23T14:18:36;7.20;;;6.70;;
1416;SDS011;703;51.162;13.574;2024-03-23T14:21:02;6.10;;;5.60;;
1416;SDS011;703;51.162;13.574;2024-03-23T14:23:29;5.90;;;5.60;;
1416;SDS011;703;51.162;13.574;2024-03-23T14:25:58;6.30;;;5.80;;
1416;SDS011;703;51.162;13.574;2024-03-23T14:28:24;6.73;;;6.13;;
1416;SDS011;703;51.162;13.574;2024-03-23T14:30:50;11.40;;;6.40;;
1416;SDS011;703;51.162;13.574;2024-03-23T14:33:17;6.67;;;6.07;;
1416;SDS011;703;51.162;13.574;2024-03-23T14:35:43;6.30;;;6.00;;
1416;SDS011;703;51.162;13.574;2024-03-23T14:38:09;6.17;;;5.70;;
1416;SDS011;703;51.162;13.574;2024-03-23T14:40:35;5.70;;;5.30;;
1416;SDS011;703;51.162;13.574;2024-03-23T14:43:01;6.73;;;6.20;;
1416;SDS011;703;51.162;13.574;2024-03-23T14:45:27;5.90;;;5.50;;
1416;SDS011;703;51.162;13.574;2024-03-23T14:47:53;7.87;;;7.20;;
1416;SDS011;703;51.162;13.574;2024-03-23T14:50:19;6.53;;;5.90;;
1416;SDS011;703;51.162;13.574;2024-03-23T14:52:46;7.37;;;6.60;;
1416;SDS011;703;51.162;13.574;2024-03-23T14:55:12;6.80;;;6.10;;
1416;SDS011;703;51.162;13.574;2024-03-23T14:57:38;6.20;;;5.80;;
1416;SDS011;703;51.162;13.574;2024-03-23T15:00:06;6.00;;;5.60;;
1416;SDS011;703;51.162;13.574;2024-03-23T15:02:32;6.53;;;6.03;;
1416;SDS011;703;51.162;13.574;2024-03-23T15:04:59;6.70;;;6.03;;
1416;SDS011;703;51.162;13.574;2024-03-23T15:07:25;5.93;;;5.53;;
1416;SDS011;703;51.162;13.574;2024-03-23T15:09:51;6.40;;;5.90;;
1416;SDS011;703;51.162;13.574;2024-03-23T15:12:18;6.80;;;6.40;;
1416;SDS011;703;51.162;13.574;2024-03-23T15:14:44;6.37;;;6.00;;
1416;SDS011;703;51.162;13.574;2024-03-23T15:17:11;7.00;;;6.40;;
1416;SDS011;703;51.162;13.574;2024-03-23T15:19:37;6.87;;;6.47;;
1416;SDS011;703;51.162;13.574;2024-03-23T15:22:03;7.57;;;7.07;;
1416;SDS011;703;51.162;13.574;2024-03-23T15:24:40;7.40;;;6.70;;
1416;SDS011;703;51.162;13.574;2024-03-23T15:27:06;16.10;;;7.20;;
1416;SDS011;703;51.162;13.574;2024-03-23T15:29:34;6.00;;;5.70;;
1416;SDS011;703;51.162;13.574;2024-03-23T15:32:01;7.20;;;6.70;;
1416;SDS011;703;51.162;13.574;2024-03-23T15:34:28;5.40;;;5.10;;
1416;SDS011;703;51.162;13.574;2024-03-23T15:36:57;19.53;;;6.47;;
1416;SDS011;703;51.162;13.574;2024-03-23T15:39:29;7.83;;;7.10;;
1416;SDS011;703;51.162;13.574;2024-03-23T15:41:55;6.30;;;6.00;;
1416;SDS011;703;51.162;13.574;2024-03-23T15:44:21;7.00;;;6.30;;
1416;SDS011;703;51.162;13.574;2024-03-23T15:46:51;22.40;;;8.13;;
1416;SDS011;703;51.162;13.574;2024-03-23T15:49:21;8.23;;;7.73;;
1416;SDS011;703;51.162;13.574;2024-03-23T15:51:56;7.70;;;7.20;;
1416;SDS011;703;51.162;13.574;2024-03-23T15:54:25;9.57;;;7.30;;
1416;SDS011;703;51.162;13.574;2024-03-23T15:56:54;9.03;;;8.17;;